Time;durP1;ratioP1;P1;durP2;ratioP2;P2;SDS_P1;SDS_P2;PMS_P1;PMS_P2;Temp;Humidity;BMP_temperature;BMP_pressure;BME280_temperature;BME280_humidity;BME280_pressure;Samples;Min_cycle;Max_cycle;Signal;HPM_P1;HPM_P2
2021/05/28 00:00:36;;;;;;;1.88;1.00;;;16.90;63.40;;;;;;5053228;28;20029;-61
2021/05/28 00:03:02;;;;;;;1.60;0.95;;;17.10;63.50;;;;;;5052030;28;20035;-61
2021/05/28 00:05:28;;;;;;;2.05;0.95;;;16.90;63.40;;;;;;5052251;28;20120;-61
2021/05/28 00:07:55;;;;;;;2.20;1.42;;;16.70;64.00;;;;;;5053431;28;20017;-61
2021/05/28 00:10:21;;;;;;;1.52;1.00;;;17.40;63.70;;;;;;5053404;28;20025;-61
2021/05/28 00:12:47;;;;;;;2.47;1.20;;;16.80;63.40;;;;;;5053097;28;20482;-61
2021/05/28 00:15:14;;;;;;;1.63;1.00;;;16.90;63.50;;;;;;5051747;28;20036;-61
2021/05/28 00:17:40;;;;;;;1.95;1.10;;;16.90;63.40;;;;;;5052951;28;20460;-62
2021/05/28 00:20:08;;;;;;;1.30;0.90;;;16.80;63.40;;;;;;5052849;28;20035;-61
2021/05/28 00:22:34;;;;;;;1.25;1.15;;;16.90;63.50;;;;;;5052930;28;20052;-61
2021/05/28 00:24:59;;;;;;;1.85;1.17;;;16.60;63.40;;;;;;5052921;28;20068;-61
2021/05/28 00:27:30;;;;;;;1.75;1.10;;;16.80;63.40;;;;;;5053079;28;20024;-61
2021/05/28 00:29:57;;;;;;;2.28;0.93;;;16.70;63.40;;;;;;5053107;28;20025;-61
2021/05/28 00:32:22;;;;;;;1.33;1.00;;;16.70;63.40;;;;;;5053027;28;20070;-61
2021/05/28 00:34:49;;;;;;;2.35;0.90;;;16.80;63.60;;;;;;5052760;28;20103;-61
2021/05/28 00:37:15;;;;;;;4.50;1.30;;;16.60;63.40;;;;;;5052662;28;20021;-61
2021/05/28 00:39:41;;;;;;;1.73;1.50;;;16.80;63.50;;;;;;5052972;28;20036;-61
2021/05/28 00:42:06;;;;;;;1.33;1.13;;;16.70;63.50;;;;;;5052659;28;20027;-61
2021/05/28 00:44:33;;;;;;;2.95;1.20;;;16.80;63.60;;;;;;5052730;28;20025;-61
2021/05/28 00:46:58;;;;;;;2.78;1.10;;;16.80;63.60;;;;;;5052670;28;20025;-61
2021/05/28 00:49:24;;;;;;;2.95;1.48;;;16.70;63.50;;;;;;5050526;28;20052;-61
2021/05/28 00:51:50;;;;;;;3.97;1.10;;;16.80;63.60;;;;;;5052468;28;20025;-61
2021/05/28 00:54:16;;;;;;;2.88;1.15;;;16.80;63.60;;;;;;5052517;28;20044;-61
2021/05/28 00:56:43;;;;;;;2.00;1.15;;;16.80;63.60;;;;;;5052800;28;20028;-61
2021/05/28 00:59:09;;;;;;;1.17;1.08;;;16.70;64.20;;;;;;5051458;28;20040;-61
2021/05/28 01:01:35;;;;;;;1.30;1.08;;;16.60;63.50;;;;;;5052426;28;20013;-61
2021/05/28 01:04:03;;;;;;;2.33;1.10;;;16.60;63.60;;;;;;5052474;28;20036;-61
2021/05/28 01:06:29;;;;;;;2.20;1.30;;;16.80;63.70;;;;;;5052648;28;20035;-61
2021/05/28 01:08:55;;;;;;;1.52;1.17;;;16.60;63.60;;;;;;5052346;28;20025;-61
2021/05/28 01:11:22;;;;;;;3.25;1.30;;;16.70;63.70;;;;;;5052650;28;20021;-61
2021/05/28 01:13:48;;;;;;;2.72;1.13;;;16.60;63.60;;;;;;5052614;28;20380;-61
2021/05/28 01:16:13;;;;;;;2.00;1.30;;;16.60;63.60;;;;;;5052362;28;20024;-61
2021/05/28 01:18:40;;;;;;;1.25;1.00;;;16.70;63.70;;;;;;5052165;28;20029;-61
2021/05/28 01:21:07;;;;;;;2.88;1.13;;;16.70;63.60;;;;;;5052216;28;20100;-61
2021/05/28 01:23:33;;;;;;;1.58;1.02;;;16.70;63.80;;;;;;5052219;28;20031;-61
2021/05/28 01:25:59;;;;;;;3.63;1.55;;;16.70;88.80;;;;;;5052400;28;20119;-61
2021/05/28 01:28:24;;;;;;;2.83;1.30;;;16.50;63.60;;;;;;5052238;28;20100;-61
2021/05/28 01:30:50;;;;;;;1.40;1.10;;;16.80;63.80;;;;;;5052202;28;20017;-61
2021/05/28 01:33:16;;;;;;;1.67;1.20;;;16.60;63.60;;;;;;5052344;28;20464;-61
2021/05/28 01:35:41;;;;;;;2.47;1.38;;;16.50;63.60;;;;;;5052127;28;20102;-61
2021/05/28 01:38:07;;;;;;;2.85;1.52;;;16.50;63.60;;;;;;5052247;28;20103;-61
2021/05/28 01:40:33;;;;;;;1.23;1.13;;;16.60;63.70;;;;;;5051134;28;20083;-61
2021/05/28 01:42:59;;;;;;;1.38;1.08;;;16.80;63.80;;;;;;5052053;28;20427;-61
2021/05/28 01:45:24;;;;;;;3.03;1.70;;;16.50;63.70;;;;;;5051976;28;20029;-61
2021/05/28 01:47:51;;;;;;;1.30;0.90;;;16.70;63.80;;;;;;5050773;28;20086;-61
2021/05/28 01:50:17;;;;;;;2.58;1.23;;;16.60;63.70;;;;;;5052030;28;20045;-61
2021/05/28 01:52:43;;;;;;;3.30;1.40;;;16.40;63.70;;;;;;5051953;28;20021;-61
2021/05/28 01:55:11;;;;;;;3.53;1.35;;;16.60;63.80;;;;;;5052000;28;20392;-61
2021/05/28 01:57:37;;;;;;;1.33;1.23;;;16.60;63.70;;;;;;5051901;28;20029;-61
2021/05/28 02:00:09;;;;;;;1.20;1.10;;;16.60;63.80;;;;;;5050503;28;20116;-61
2021/05/28 02:02:35;;;;;;;1.67;1.17;;;16.60;63.80;;;;;;5054975;28;20597;-61
2021/05/28 02:05:01;;;;;;;2.10;1.25;;;16.40;63.70;;;;;;5055799;28;20104;-61
2021/05/28 02:07:26;;;;;;;1.90;1.45;;;16.40;63.70;;;;;;5055751;28;20009;-61
2021/05/28 02:09:52;;;;;;;2.20;1.40;;;16.40;63.70;;;;;;5054443;28;20378;-61
2021/05/28 02:12:19;;;;;;;1.90;1.42;;;16.60;63.80;;;;;;5055641;28;20021;-61
2021/05/28 02:14:44;;;;;;;3.15;1.63;;;16.60;63.80;;;;;;5055545;28;20100;-61
2021/05/28 02:17:10;;;;;;;1.90;1.02;;;16.50;63.80;;;;;;5055267;28;20100;-61
2021/05/28 02:19:36;;;;;;;1.50;1.27;;;16.40;63.80;;;;;;5055409;28;20048;-61
2021/05/28 02:22:02;;;;;;;1.92;1.17;;;16.50;63.90;;;;;;5055458;28;20380;-61
2021/05/28 02:24:27;;;;;;;1.80;1.25;;;16.50;63.80;;;;;;5055107;28;20021;-61
2021/05/28 02:26:56;;;;;;;2.42;1.40;;;16.60;63.90;;;;;;5055387;28;20067;-61
2021/05/28 02:29:23;;;;;;;2.67;1.15;;;16.50;63.90;;;;;;5055032;28;20462;-61
2021/05/28 02:31:48;;;;;;;2.33;1.30;;;16.40;63.80;;;;;;5055069;28;20440;-61
2021/05/28 02:34:14;;;;;;;1.15;1.05;;;16.70;64.00;;;;;;5054935;28;20093;-61
2021/05/28 02:36:39;;;;;;;2.30;1.20;;;16.30;63.80;;;;;;5055195;28;20035;-61
2021/05/28 02:39:08;;;;;;;1.92;1.33;;;16.50;63.90;;;;;;5055027;28;20059;-61
2021/05/28 02:41:34;;;;;;;1.13;1.02;;;16.30;63.80;;;;;;5055097;28;20056;-61
2021/05/28 02:44:00;;;;;;;2.00;1.25;;;16.40;63.90;;;;;;5054738;28;20029;-61
2021/05/28 02:46:26;;;;;;;2.53;1.45;;;16.50;63.90;;;;;;5054961;28;20025;-61
2021/05/28 02:48:52;;;;;;;2.30;1.45;;;16.50;63.90;;;;;;5053295;28;20029;-61
2021/05/28 02:51:20;;;;;;;1.95;1.35;;;16.40;63.90;;;;;;5054644;28;20025;-61
2021/05/28 02:53:45;;;;;;;1.13;1.02;;;16.50;63.90;;;;;;5054901;28;20033;-61
2021/05/28 02:56:12;;;;;;;2.78;1.50;;;16.30;63.80;;;;;;5054604;28;20514;-61
2021/05/28 02:58:38;;;;;;;1.63;1.40;;;16.40;63.90;;;;;;5054702;28;20021;-61
2021/05/28 03:01:03;;;;;;;2.15;1.48;;;16.30;63.90;;;;;;5054824;28;20036;-61
2021/05/28 03:03:29;;;;;;;1.33;1.10;;;16.40;63.90;;;;;;5054765;28;20017;-61
2021/05/28 03:05:55;;;;;;;2.15;1.20;;;16.40;63.90;;;;;;5054683;28;20025;-61
2021/05/28 03:08:21;;;;;;;1.65;1.05;;;16.30;63.90;;;;;;5054707;28;20028;-61
2021/05/28 03:10:47;;;;;;;2.70;1.25;;;16.30;63.90;;;;;;5054515;28;20071;-61
2021/05/28 03:13:14;;;;;;;1.77;1.15;;;16.30;63.80;;;;;;5053843;28;20013;-61
2021/05/28 03:15:40;;;;;;;1.75;1.30;;;16.20;63.80;;;;;;5054482;28;20044;-61
2021/05/28 03:18:12;;;;;;;2.05;1.02;;;16.50;89.40;;;;;;5052777;28;20025;-61
2021/05/28 03:20:41;;;;;;;4.30;1.60;;;16.40;64.00;;;;;;5054204;28;20112;-61
2021/05/28 03:23:07;;;;;;;1.73;1.60;;;16.50;89.40;;;;;;5053173;28;20025;-61
2021/05/28 03:25:33;;;;;;;2.53;1.80;;;16.30;63.90;;;;;;5054294;28;20086;-61
2021/05/28 03:27:59;;;;;;;1.40;1.30;;;16.50;64.00;;;;;;5052723;28;20025;-61
2021/05/28 03:30:25;;;;;;;3.28;2.08;;;16.40;63.90;;;;;;5054247;28;20025;-62
2021/05/28 03:32:50;;;;;;;2.45;1.35;;;16.40;63.90;;;;;;5054206;28;20056;-62
2021/05/28 03:35:16;;;;;;;1.48;1.13;;;16.10;64.40;;;;;;5054216;28;20357;-61
2021/05/28 03:37:42;;;;;;;3.58;1.52;;;16.40;63.90;;;;;;5054091;28;20021;-61
2021/05/28 03:40:09;;;;;;;2.28;1.40;;;16.40;63.90;;;;;;5053716;28;20029;-61
2021/05/28 03:42:35;;;;;;;1.45;1.35;;;16.40;64.00;;;;;;5053732;28;20020;-61
2021/05/28 03:45:03;;;;;;;1.65;1.40;;;16.20;63.80;;;;;;5053774;28;20089;-61
2021/05/28 03:47:28;;;;;;;2.47;1.30;;;16.20;63.80;;;;;;5053732;28;20032;-61
2021/05/28 03:49:54;;;;;;;2.45;1.65;;;16.40;64.00;;;;;;5053429;28;20396;-61
2021/05/28 03:52:19;;;;;;;1.27;1.10;;;16.20;63.90;;;;;;5052373;28;20032;-61
2021/05/28 03:54:45;;;;;;;2.17;1.27;;;16.30;63.90;;;;;;5053481;28;20025;-61
2021/05/28 03:57:10;;;;;;;1.73;1.63;;;16.40;64.00;;;;;;5053458;28;20092;-61
2021/05/28 03:59:36;;;;;;;1.90;1.60;;;16.30;63.90;;;;;;5053431;28;20123;-62
2021/05/28 04:02:03;;;;;;;3.55;1.48;;;16.30;63.90;;;;;;5053591;28;20029;-61
2021/05/28 04:04:28;;;;;;;2.70;1.55;;;16.30;63.90;;;;;;5053255;28;20021;-61
2021/05/28 04:06:54;;;;;;;6.55;1.67;;;16.20;63.80;;;;;;5053433;28;20023;-61
2021/05/28 04:09:20;;;;;;;1.50;1.40;;;16.30;63.90;;;;;;5053158;28;20476;-61
2021/05/28 04:11:45;;;;;;;2.78;1.58;;;16.20;63.80;;;;;;5053100;28;20032;-61
2021/05/28 04:14:11;;;;;;;2.25;1.35;;;16.20;63.80;;;;;;5053341;28;20141;-60
2021/05/28 04:16:36;;;;;;;1.80;1.42;;;16.30;63.90;;;;;;5053335;28;20048;-61
2021/05/28 04:19:02;;;;;;;1.92;1.55;;;16.20;63.80;;;;;;5051757;28;20075;-61
2021/05/28 04:21:28;;;;;;;2.28;1.88;;;16.30;63.90;;;;;;5053403;28;20493;-61
2021/05/28 04:23:53;;;;;;;2.30;1.75;;;16.30;63.90;;;;;;5052697;28;20021;-61
2021/05/28 04:26:19;;;;;;;3.10;1.70;;;16.30;63.90;;;;;;5052688;28;20026;-61
2021/05/28 04:28:45;;;;;;;1.95;1.63;;;16.30;63.90;;;;;;5053150;28;20028;-61
2021/05/28 04:31:10;;;;;;;1.70;1.60;;;16.20;63.90;;;;;;5053093;28;20020;-61
2021/05/28 04:33:36;;;;;;;2.28;1.70;;;16.10;63.80;;;;;;5034924;28;20392;-61
2021/05/28 04:36:02;;;;;;;2.00;1.50;;;16.10;63.80;;;;;;5052713;28;20040;-61
2021/05/28 04:38:27;;;;;;;2.05;1.38;;;16.30;64.00;;;;;;5052968;28;20032;-61
2021/05/28 04:40:54;;;;;;;2.22;1.98;;;16.10;63.90;;;;;;5053035;28;20398;-60
2021/05/28 04:43:20;;;;;;;1.30;1.20;;;16.10;63.80;;;;;;5052489;28;20082;-61
2021/05/28 04:45:46;;;;;;;1.85;1.40;;;16.20;63.90;;;;;;5052652;28;20028;-60
2021/05/28 04:48:12;;;;;;;3.10;1.80;;;16.20;63.80;;;;;;5052566;28;20475;-60
2021/05/28 04:50:38;;;;;;;1.90;1.60;;;16.20;63.80;;;;;;5052376;28;20055;-60
2021/05/28 04:53:05;;;;;;;2.30;1.73;;;16.00;63.80;;;;;;5052777;28;20027;-61
2021/05/28 04:55:31;;;;;;;2.00;1.80;;;16.20;63.90;;;;;;5052645;28;20021;-61
2021/05/28 04:57:57;;;;;;;3.15;1.70;;;16.00;63.80;;;;;;5052510;28;20024;-61
2021/05/28 05:00:24;;;;;;;1.92;1.70;;;16.20;63.90;;;;;;5052358;28;20029;-60
2021/05/28 05:02:50;;;;;;;1.90;1.70;;;16.00;63.80;;;;;;5052668;28;20025;-60
2021/05/28 05:05:17;;;;;;;1.50;1.40;;;16.00;63.80;;;;;;5052646;28;20025;-60
2021/05/28 05:07:43;;;;;;;1.70;1.50;;;16.20;64.00;;;;;;5052646;28;20027;-61
2021/05/28 05:10:10;;;;;;;1.67;1.58;;;16.20;64.00;;;;;;5052580;28;20025;-61
2021/05/28 05:12:37;;;;;;;2.15;1.70;;;16.20;63.90;;;;;;5052307;28;20357;-60
2021/05/28 05:15:03;;;;;;;2.80;1.50;;;16.30;64.10;;;;;;5052510;28;20028;-60
2021/05/28 05:17:29;;;;;;;1.92;1.70;;;16.20;64.00;;;;;;5052235;28;20071;-60
2021/05/28 05:19:54;;;;;;;2.03;1.83;;;16.20;64.00;;;;;;5052398;28;20061;-60
2021/05/28 05:22:20;;;;;;;3.15;1.77;;;16.70;64.20;;;;;;5052478;28;20063;-60
2021/05/28 05:24:46;;;;;;;1.77;1.67;;;16.30;63.90;;;;;;5052151;28;20029;-60
2021/05/28 05:27:11;;;;;;;2.38;1.83;;;16.40;63.90;;;;;;5052329;28;20029;-60
2021/05/28 05:29:37;;;;;;;1.90;1.73;;;16.10;63.80;;;;;;5052306;28;20029;-59
2021/05/28 05:32:02;;;;;;;2.58;1.90;;;16.40;64.10;;;;;;5052374;28;20021;-60
2021/05/28 05:34:28;;;;;;;1.67;1.13;;;16.30;64.20;;;;;;5051914;28;20028;-60
2021/05/28 05:36:55;;;;;;;1.77;1.50;;;16.40;64.40;;;;;;5054673;28;20017;-61
2021/05/28 05:39:22;;;;;;;3.97;1.83;;;16.30;64.20;;;;;;5056055;28;20399;-59
2021/05/28 05:41:48;;;;;;;1.77;1.40;;;16.00;63.80;;;;;;5055719;28;20043;-59
2021/05/28 05:44:13;;;;;;;2.10;1.90;;;16.30;64.00;;;;;;5055858;28;20029;-59
2021/05/28 05:46:39;;;;;;;1.92;1.70;;;16.20;64.00;;;;;;5054439;28;20105;-60
2021/05/28 05:49:05;;;;;;;1.85;1.27;;;16.30;64.10;;;;;;5054273;28;20179;-59
2021/05/28 05:51:31;;;;;;;1.55;1.35;;;17.00;64.40;;;;;;5055809;28;20103;-59
2021/05/28 05:53:57;;;;;;;1.38;1.27;;;16.40;64.30;;;;;;5055896;28;20069;-60
2021/05/28 05:56:22;;;;;;;3.00;1.55;;;16.20;64.00;;;;;;5055976;28;20032;-59
2021/05/28 05:58:48;;;;;;;2.10;1.70;;;16.20;64.70;;;;;;5055798;28;20388;-58
2021/05/28 06:01:14;;;;;;;5.68;1.55;;;16.30;64.40;;;;;;5055849;28;20025;-59
2021/05/28 06:03:39;;;;;;;2.80;2.03;;;16.30;65.10;;;;;;5054589;28;20102;-60
2021/05/28 06:06:05;;;;;;;4.20;1.83;;;16.10;64.90;;;;;;5055591;28;20017;-60
2021/05/28 06:08:30;;;;;;;8.40;1.60;;;16.30;65.00;;;;;;5055659;28;20018;-60
2021/05/28 06:10:56;;;;;;;5.07;1.60;;;16.40;65.00;;;;;;5055577;28;20040;-60
2021/05/28 06:13:22;;;;;;;6.30;1.80;;;17.30;65.40;;;;;;5055583;28;20548;-60
2021/05/28 06:15:47;;;;;;;6.60;1.67;;;16.30;64.70;;;;;;5055271;28;20024;-57
2021/05/28 06:18:13;;;;;;;10.98;1.60;;;16.40;64.80;;;;;;5053996;28;20045;-58
2021/05/28 06:20:38;;;;;;;7.57;2.28;;;16.30;65.10;;;;;;5055523;28;20529;-60
2021/05/28 06:23:04;;;;;;;4.20;1.70;;;16.40;64.80;;;;;;5055446;28;20013;-60
2021/05/28 06:25:30;;;;;;;12.52;1.98;;;16.40;64.80;;;;;;5053827;28;20036;-60
2021/05/28 06:27:55;;;;;;;3.67;1.90;;;16.30;65.50;;;;;;5055081;28;20028;-60
2021/05/28 06:30:21;;;;;;;8.73;1.75;;;16.50;65.30;;;;;;5054999;28;20104;-60
2021/05/28 06:32:47;;;;;;;4.68;1.90;;;16.40;65.10;;;;;;5055078;28;20013;-60
2021/05/28 06:35:13;;;;;;;4.55;1.90;;;16.60;65.80;;;;;;5055238;28;20021;-60
2021/05/28 06:37:38;;;;;;;5.20;1.77;;;16.50;65.60;;;;;;5053520;28;20025;-60
2021/05/28 06:40:06;;;;;;;5.82;1.80;;;16.40;65.60;;;;;;5055050;28;20033;-59
2021/05/28 06:42:33;;;;;;;5.40;1.88;;;16.50;65.70;;;;;;5053426;28;20029;-60
2021/05/28 06:44:59;;;;;;;4.22;1.90;;;16.40;65.60;;;;;;5053452;28;20380;-60
2021/05/28 06:47:25;;;;;;;5.95;2.33;;;16.50;65.70;;;;;;5054017;28;20036;-60
2021/05/28 06:49:51;;;;;;;5.90;1.75;;;16.40;66.30;;;;;;5054578;28;20127;-60
2021/05/28 06:52:17;;;;;;;2.63;1.30;;;16.40;65.50;;;;;;5054626;28;20067;-60
2021/05/28 06:54:43;;;;;;;1.63;1.45;;;16.40;65.60;;;;;;5054648;28;20054;-60
2021/05/28 06:57:09;;;;;;;3.50;1.40;;;16.50;65.60;;;;;;5054507;28;20531;-61
2021/05/28 06:59:34;;;;;;;3.38;1.70;;;16.50;65.60;;;;;;5054606;28;20117;-61
2021/05/28 07:02:00;;;;;;;3.30;1.70;;;16.50;65.60;;;;;;5054497;28;20452;-60
2021/05/28 07:04:26;;;;;;;1.75;1.40;;;16.20;65.30;;;;;;5054413;28;20025;-60
2021/05/28 07:06:51;;;;;;;3.88;1.75;;;16.40;65.40;;;;;;5054309;28;20510;-61
2021/05/28 07:09:17;;;;;;;4.93;1.50;;;16.40;65.40;;;;;;5054284;28;20021;-60
2021/05/28 07:11:43;;;;;;;2.13;1.70;;;16.30;65.20;;;;;;5054502;28;20021;-60
2021/05/28 07:14:09;;;;;;;5.00;1.30;;;17.00;65.60;;;;;;5054454;28;20021;-60
2021/05/28 07:16:35;;;;;;;3.70;1.50;;;16.40;65.30;;;;;;5052849;28;20021;-60
2021/05/28 07:19:00;;;;;;;2.72;1.70;;;16.40;65.20;;;;;;5054042;28;20029;-61
2021/05/28 07:21:26;;;;;;;5.28;1.50;;;16.50;65.20;;;;;;5054393;28;20027;-61
2021/05/28 07:23:52;;;;;;;2.40;1.60;;;16.60;65.10;;;;;;5054100;28;20039;-61
2021/05/28 07:26:18;;;;;;;3.30;1.35;;;16.40;64.90;;;;;;5052698;28;20017;-61
2021/05/28 07:28:44;;;;;;;2.70;1.58;;;16.70;90.20;;;;;;5053873;28;20096;-61
2021/05/28 07:31:10;;;;;;;3.40;1.45;;;16.60;65.00;;;;;;5052575;28;20159;-61
2021/05/28 07:33:36;;;;;;;2.88;1.40;;;16.70;64.90;;;;;;5054170;28;20096;-61
2021/05/28 07:36:03;;;;;;;1.63;1.20;;;16.40;64.70;;;;;;5053811;28;20029;-61
2021/05/28 07:38:54;;;;;;;3.65;1.38;;;16.60;64.80;;;;;;5053622;28;20025;-61
2021/05/28 07:41:20;;;;;;;3.05;1.70;;;16.70;90.10;;;;;;5052935;28;20057;-61
2021/05/28 07:43:46;;;;;;;2.75;1.80;;;16.50;64.70;;;;;;5053722;28;20071;-61
2021/05/28 07:46:11;;;;;;;4.95;1.60;;;16.50;64.70;;;;;;5053543;28;20078;-61
2021/05/28 07:48:37;;;;;;;3.65;1.80;;;16.70;64.80;;;;;;5053468;28;20032;-61
2021/05/28 07:51:03;;;;;;;2.63;1.70;;;16.80;64.90;;;;;;5053323;28;20080;-61
2021/05/28 07:53:29;;;;;;;2.65;1.60;;;16.70;64.80;;;;;;5052118;28;20476;-61
2021/05/28 07:55:59;;;;;;;4.90;1.75;;;17.40;65.10;;;;;;5053706;28;20025;-61
2021/05/28 07:58:25;;;;;;;4.43;1.52;;;17.30;65.00;;;;;;5053448;28;20021;-61
2021/05/28 08:00:50;;;;;;;1.83;1.30;;;16.60;64.60;;;;;;5053643;28;20021;-61
2021/05/28 08:03:16;;;;;;;1.92;1.50;;;16.70;64.60;;;;;;5053614;28;20040;-61
2021/05/28 08:05:43;;;;;;;2.25;1.30;;;16.70;64.70;;;;;;5053193;28;20025;-61
2021/05/28 08:08:10;;;;;;;2.20;1.50;;;16.60;64.60;;;;;;5051924;28;20052;-61
2021/05/28 08:10:37;;;;;;;2.83;1.55;;;16.90;64.20;;;;;;5052011;28;20621;-61
2021/05/28 08:13:02;;;;;;;2.50;1.33;;;16.80;64.70;;;;;;5053244;28;20384;-61
2021/05/28 08:15:31;;;;;;;2.00;1.35;;;16.90;64.70;;;;;;5053423;28;20020;-61
2021/05/28 08:17:56;;;;;;;1.90;1.30;;;16.90;64.70;;;;;;5053104;28;20032;-60
2021/05/28 08:20:22;;;;;;;1.45;1.25;;;16.70;64.60;;;;;;5052109;28;20049;-60
2021/05/28 08:22:48;;;;;;;1.85;1.10;;;17.00;64.70;;;;;;5053037;28;20036;-60
2021/05/28 08:25:14;;;;;;;2.17;1.30;;;16.80;64.50;;;;;;5051593;28;20035;-60
2021/05/28 08:27:39;;;;;;;1.58;1.48;;;17.10;89.80;;;;;;5053225;28;20098;-60
2021/05/28 08:30:06;;;;;;;1.48;1.20;;;17.10;64.60;;;;;;5053242;28;20032;-60
2021/05/28 08:32:31;;;;;;;2.58;1.35;;;17.10;64.50;;;;;;5053361;28;20086;-61
2021/05/28 08:34:57;;;;;;;1.25;0.95;;;16.90;64.40;;;;;;5052825;28;20444;-61
2021/05/28 08:37:23;;;;;;;2.22;1.30;;;17.30;64.60;;;;;;5052990;28;20021;-61
2021/05/28 08:39:49;;;;;;;1.60;1.35;;;17.20;64.50;;;;;;5052949;28;20483;-61
2021/05/28 08:42:20;;;;;;;3.40;1.40;;;16.90;64.20;;;;;;5052888;28;20251;-61
2021/05/28 08:44:46;;;;;;;2.10;1.27;;;17.00;64.20;;;;;;5052911;28;20021;-61
2021/05/28 08:47:13;;;;;;;2.28;1.10;;;17.20;64.30;;;;;;5052558;28;20480;-61
2021/05/28 08:49:39;;;;;;;2.63;1.00;;;17.10;64.30;;;;;;5052576;28;20037;-61
2021/05/28 08:52:05;;;;;;;1.40;1.30;;;17.30;64.30;;;;;;5052345;28;20063;-61
2021/05/28 08:54:31;;;;;;;1.63;1.20;;;17.10;64.20;;;;;;5052520;28;20021;-61
2021/05/28 08:56:57;;;;;;;1.33;1.13;;;17.40;64.20;;;;;;5052745;28;20017;-61
2021/05/28 08:59:23;;;;;;;0.85;0.85;;;17.10;64.00;;;;;;5052716;28;20486;-61
2021/05/28 09:01:48;;;;;;;2.20;1.33;;;17.50;64.20;;;;;;5052725;28;20021;-61
2021/05/28 09:04:14;;;;;;;2.42;1.17;;;17.30;64.00;;;;;;5052627;28;20549;-61
2021/05/28 09:06:39;;;;;;;0.70;0.70;;;17.50;64.10;;;;;;5052735;28;20376;-61
2021/05/28 09:09:16;;;;;;;1.27;1.10;;;17.60;64.00;;;;;;5052697;28;20024;-60
2021/05/28 09:11:58;;;;;;;1.63;0.90;;;17.70;64.00;;;;;;5054538;28;20507;-60
2021/05/28 09:14:43;;;;;;;2.78;0.93;;;17.70;63.70;;;;;;5056536;28;20028;-60
2021/05/28 09:17:10;;;;;;;1.25;1.10;;;17.70;63.70;;;;;;5055289;28;20028;-60
2021/05/28 09:19:38;;;;;;;2.25;1.00;;;17.60;63.40;;;;;;5056389;28;20044;-60
2021/05/28 09:22:07;;;;;;;1.10;1.00;;;17.70;63.40;;;;;;5056364;28;20033;-60
2021/05/28 09:24:37;;;;;;;2.23;0.97;;;17.80;63.30;;;;;;5056323;28;20557;-61
2021/05/28 09:27:19;;;;;;;;;;;18.00;63.50;;;;;;5056665;28;20786;-61
2021/05/28 09:30:06;;;;;;;1.13;1.02;;;17.90;63.30;;;;;;5056230;28;19905;-61
2021/05/28 09:32:34;;;;;;;3.75;0.80;;;17.90;63.40;;;;;;5056220;28;20554;-61
2021/05/28 09:35:00;;;;;;;2.15;1.00;;;17.80;63.90;;;;;;5056160;28;20021;-61
2021/05/28 09:37:40;;;;;;;1.95;1.13;;;18.00;63.20;;;;;;5056056;28;20025;-61
2021/05/28 09:40:27;;;;;;;1.17;0.80;;;18.70;63.40;;;;;;5056179;28;20029;-61
2021/05/28 09:42:57;;;;;;;2.35;1.05;;;18.00;62.80;;;;;;5056166;28;20029;-61
2021/05/28 09:45:30;;;;;;;1.90;1.15;;;18.10;62.80;;;;;;5056224;28;20131;-61
2021/05/28 09:47:57;;;;;;;1.00;0.75;;;18.10;62.80;;;;;;5054674;28;20028;-61
2021/05/28 09:50:23;;;;;;;0.60;0.60;;;18.00;62.80;;;;;;5055724;28;20049;-60
2021/05/28 09:52:49;;;;;;;1.17;0.90;;;18.10;62.90;;;;;;5055718;28;20155;-61
2021/05/28 09:55:15;;;;;;;0.80;0.75;;;18.20;62.90;;;;;;5055892;28;20044;-61
2021/05/28 09:57:52;;;;;;;0.90;0.80;;;18.00;62.70;;;;;;5055609;28;20469;-61
2021/05/28 10:00:35;;;;;;;0.80;0.80;;;18.20;62.70;;;;;;5055500;28;20047;-61
2021/05/28 10:03:23;;;;;;;0.77;0.77;;;18.30;62.60;;;;;;5055688;28;20021;-60
2021/05/28 10:05:51;;;;;;;1.20;0.88;;;18.30;62.50;;;;;;5055878;28;20043;-60
2021/05/28 10:08:19;;;;;;;0.85;0.85;;;18.20;62.40;;;;;;5055459;28;20504;-60
2021/05/28 10:10:49;;;;;;;1.17;0.70;;;18.30;62.40;;;;;;5055757;28;20064;-61
2021/05/28 10:13:16;;;;;;;1.30;1.00;;;18.10;62.20;;;;;;5055676;28;20017;-60
2021/05/28 10:15:47;;;;;;;1.33;0.82;;;18.30;62.30;;;;;;5055308;28;20127;-60
2021/05/28 10:18:14;;;;;;;1.50;0.80;;;18.40;62.20;;;;;;5055277;28;20035;-60
2021/05/28 10:20:41;;;;;;;1.52;0.80;;;18.50;62.30;;;;;;5053877;28;20373;-60
2021/05/28 10:23:09;;;;;;;1.10;0.80;;;19.00;62.50;;;;;;5055090;28;20026;-60
2021/05/28 10:25:36;;;;;;;1.55;0.90;;;18.30;62.10;;;;;;5055410;28;20051;-60
2021/05/28 10:28:06;;;;;;;1.45;1.08;;;18.30;62.40;;;;;;5055433;28;20044;-60
2021/05/28 10:30:40;;;;;;;1.30;0.80;;;18.50;62.10;;;;;;5053850;28;20514;-60
2021/05/28 10:33:27;;;;;;;0.80;0.80;;;18.60;61.90;;;;;;5055283;28;20052;-60
2021/05/28 10:35:58;;;;;;;0.73;0.70;;;18.60;86.60;;;;;;5055131;28;20021;-60
2021/05/28 10:38:29;;;;;;;0.98;0.70;;;18.60;61.80;;;;;;5053574;28;20458;-61
2021/05/28 10:41:07;;;;;;;0.85;0.75;;;18.60;86.60;;;;;;5054685;28;20073;-60
2021/05/28 10:43:38;;;;;;;1.48;0.90;;;18.60;61.70;;;;;;5054788;28;20017;-60
2021/05/28 10:46:05;;;;;;;0.80;0.60;;;18.50;61.70;;;;;;5054775;28;20033;-60
2021/05/28 10:48:37;;;;;;;1.25;0.65;;;18.70;61.60;;;;;;5055025;28;20013;-61
2021/05/28 10:51:06;;;;;;;1.27;0.55;;;18.70;61.40;;;;;;5054544;28;20049;-61
2021/05/28 10:53:32;;;;;;;1.70;1.02;;;18.80;61.50;;;;;;5054669;28;20090;-61
2021/05/28 10:56:08;;;;;;;0.73;0.60;;;18.50;61.30;;;;;;5054484;28;20100;-61
2021/05/28 10:58:53;;;;;;;1.23;0.70;;;18.80;61.40;;;;;;5054332;28;20017;-60
2021/05/28 11:01:31;;;;;;;0.60;0.60;;;18.80;61.30;;;;;;5054485;28;20037;-58
2021/05/28 11:03:57;;;;;;;1.65;0.82;;;19.20;61.50;;;;;;5054485;28;20021;-62
2021/05/28 11:06:23;;;;;;;3.75;0.85;;;18.90;61.00;;;;;;5054752;28;20029;-62
2021/05/28 11:08:51;;;;;;;1.10;0.68;;;19.50;61.00;;;;;;5054374;28;20025;-62
2021/05/28 11:11:46;;;;;;;3.38;1.27;;;18.80;60.30;;;;;;5054466;28;20499;-62
2021/05/28 11:14:14;;;;;;;1.65;0.93;;;18.70;59.90;;;;;;5041528;28;20044;-62
2021/05/28 11:16:57;;;;;;;2.63;1.05;;;19.00;59.80;;;;;;5054195;28;20060;-62
2021/05/28 11:19:23;;;;;;;4.57;0.80;;;19.00;59.70;;;;;;5054400;28;20083;-61
2021/05/28 11:21:56;;;;;;;2.80;0.85;;;18.70;59.60;;;;;;5054411;28;20047;-61
2021/05/28 11:24:39;;;;;;;4.43;1.00;;;19.00;59.50;;;;;;5054162;28;20029;-61
2021/05/28 11:27:11;;;;;;;9.60;1.30;;;18.90;59.20;;;;;;5052827;28;20052;-61
2021/05/28 11:29:37;;;;;;;1.67;1.05;;;18.80;58.80;;;;;;5054007;28;20028;-62
2021/05/28 11:32:26;;;;;;;6.25;1.10;;;19.30;58.80;;;;;;5053973;28;20029;-61
2021/05/28 11:35:10;;;;;;;2.80;0.80;;;19.10;58.50;;;;;;5053737;28;20041;-62
2021/05/28 11:37:38;;;;;;;2.97;1.17;;;19.10;58.30;;;;;;5053994;28;20029;-61
2021/05/28 11:40:18;;;;;;;3.45;1.20;;;18.90;58.10;;;;;;5054114;28;20067;-61
2021/05/28 11:42:44;;;;;;;1.70;0.90;;;19.20;58.00;;;;;;5053755;28;20096;-61
2021/05/28 11:45:11;;;;;;;3.00;1.02;;;18.90;57.60;;;;;;5054045;28;20109;-61
2021/05/28 11:47:38;;;;;;;1.60;0.88;;;19.20;57.60;;;;;;5053944;28;20018;-61
2021/05/28 11:50:10;;;;;;;1.58;1.00;;;19.50;57.60;;;;;;5053410;28;20045;-62
2021/05/28 11:52:35;;;;;;;1.35;0.85;;;19.20;57.30;;;;;;5053598;28;20100;-62
2021/05/28 11:55:11;;;;;;;4.03;1.52;;;19.20;57.20;;;;;;5053816;28;20100;-62
2021/05/28 11:57:38;;;;;;;1.67;0.90;;;19.20;57.10;;;;;;5053516;28;20051;-62
2021/05/28 12:00:10;;;;;;;2.42;0.90;;;19.00;56.90;;;;;;5053601;28;20080;-62
2021/05/28 12:02:38;;;;;;;2.33;1.20;;;19.30;57.00;;;;;;5053390;28;20028;-62
2021/05/28 12:05:06;;;;;;;2.80;0.85;;;19.00;56.70;;;;;;5053649;28;20029;-62
2021/05/28 12:07:32;;;;;;;1.63;0.90;;;19.30;56.70;;;;;;5053295;28;20021;-62
2021/05/28 12:10:03;;;;;;;1.60;1.17;;;19.10;56.50;;;;;;5035426;28;20020;-62
2021/05/28 12:12:48;;;;;;;1.77;1.20;;;19.30;56.40;;;;;;5053264;28;20028;-62
2021/05/28 12:15:14;;;;;;;1.77;1.25;;;19.00;56.20;;;;;;5053489;28;20043;-62
2021/05/28 12:17:39;;;;;;;1.88;1.00;;;19.10;80.40;;;;;;5052123;28;20439;-62
2021/05/28 12:20:29;;;;;;;2.75;1.15;;;19.30;56.10;;;;;;5051855;28;20033;-62
2021/05/28 12:23:08;;;;;;;1.20;0.95;;;19.30;55.80;;;;;;5053055;28;20490;-62
2021/05/28 12:25:37;;;;;;;1.83;1.00;;;19.40;55.80;;;;;;5053281;28;20387;-62
2021/05/28 12:28:11;;;;;;;0.90;0.85;;;19.30;55.60;;;;;;5052999;28;20074;-62
2021/05/28 12:30:38;;;;;;;0.98;0.85;;;19.40;55.60;;;;;;5053304;28;20033;-62
2021/05/28 12:33:04;;;;;;;1.92;1.20;;;19.80;55.70;;;;;;5052962;28;20380;-62
2021/05/28 12:35:30;;;;;;;1.70;0.98;;;19.40;55.30;;;;;;5051672;28;20017;-62
2021/05/28 12:38:04;;;;;;;1.65;1.10;;;19.40;55.30;;;;;;5051896;28;20021;-60
2021/05/28 12:40:30;;;;;;;4.57;1.10;;;19.30;79.40;;;;;;5051407;28;20029;-60
2021/05/28 12:43:00;;;;;;;1.27;1.17;;;19.20;55.00;;;;;;5051465;28;20024;-60
2021/05/28 12:45:40;;;;;;;0.77;0.70;;;19.10;54.80;;;;;;5051913;28;20080;-59
2021/05/28 12:48:07;;;;;;;0.88;0.88;;;19.30;54.70;;;;;;5053019;28;20017;-60
2021/05/28 12:50:37;;;;;;;1.60;0.90;;;19.30;54.70;;;;;;5052500;28;20075;-60